Time;durP1;ratioP1;P1;durP2;ratioP2;P2;SDS_P1;SDS_P2;PMS_P1;PMS_P2;Temp;Humidity;BMP_temperature;BMP_pressure;BME280_temperature;BME280_humidity;BME280_pressure;Samples;Min_cycle;Max_cycle;Signal;HPM_P1;HPM_P2
2023/01/17 00:02:12;;;;;;;2.60;1.17;;;4.30;99.90;4.20;97237.00;;;;4966687;28;109561;-66
2023/01/17 00:10:23;;;;;;;0.90;0.67;;;4.40;99.90;4.30;97225.00;;;;4967486;28;88762;-67
2023/01/17 00:12:51;;;;;;;1.23;0.93;;;5.00;99.90;4.40;97227.00;;;;4969375;28;105105;-67
2023/01/17 00:15:22;;;;;;;1.20;1.00;;;4.50;99.90;4.40;97212.00;;;;4971006;28;87977;-65
2023/01/17 00:17:48;;;;;;;1.47;1.00;;;4.50;99.90;4.40;97215.00;;;;4965334;28;88321;-67
2023/01/17 00:26:03;;;;;;;1.67;1.20;;;5.20;99.90;4.40;97229.00;;;;4966471;28;87671;-66
2023/01/17 01:35:44;;;;;;;2.00;1.20;;;4.50;99.90;4.40;97208.00;;;;4971344;28;88064;-67
2023/01/17 01:38:09;;;;;;;2.53;1.33;;;4.50;99.90;4.40;97205.00;;;;4975001;28;87926;-65
2023/01/17 01:40:48;;;;;;;1.63;1.43;;;4.70;99.90;4.40;97196.00;;;;4970470;28;88102;-65
2023/01/17 01:43:18;;;;;;;1.50;1.40;;;4.60;99.90;4.40;97189.00;;;;4974229;28;87298;-65
2023/01/17 01:45:50;;;;;;;2.60;1.30;;;4.60;99.90;4.40;97183.00;;;;4972490;28;87705;-66
2023/01/17 01:48:46;;;;;;;1.20;1.10;;;4.50;99.90;4.40;97194.00;;;;4970615;28;100872;-66
2023/01/17 01:51:21;;;;;;;1.87;1.27;;;4.60;99.90;4.40;97191.00;;;;4974023;28;88712;-66
2023/01/17 01:53:51;;;;;;;1.40;1.30;;;4.50;99.90;4.40;97190.00;;;;4970831;28;110417;-65
2023/01/17 01:56:18;;;;;;;2.97;1.30;;;4.50;99.90;4.30;97187.00;;;;4973096;28;88151;-65
2023/01/17 01:58:48;;;;;;;2.03;1.23;;;4.50;99.90;4.30;97187.00;;;;4987229;27;87748;-65
2023/01/17 02:01:14;;;;;;;2.40;1.40;;;4.60;99.90;4.30;97190.00;;;;4989528;28;87558;-65
2023/01/17 02:03:40;;;;;;;1.27;1.00;;;5.20;99.90;4.30;97188.00;;;;4975298;27;117343;-66
2023/01/17 02:06:29;;;;;;;1.00;0.90;;;5.30;99.90;4.30;97200.00;;;;4972177;28;106274;-66
2023/01/17 02:08:59;;;;;;;1.50;1.27;;;5.00;99.90;4.40;97192.00;;;;4969194;28;87315;-65
2023/01/17 02:11:26;;;;;;;1.27;1.17;;;5.00;99.90;4.40;97186.00;;;;4973922;28;101042;-65
2023/01/17 02:13:52;;;;;;;1.90;1.17;;;4.50;99.90;4.40;97187.00;;;;4971538;28;87691;-65
2023/01/17 02:16:26;;;;;;;1.50;1.23;;;4.60;99.90;4.50;97182.00;;;;4967650;28;116002;-67
2023/01/17 02:19:06;;;;;;;2.23;0.93;;;4.50;99.90;4.50;97191.00;;;;4969438;28;88018;-65
2023/01/17 02:22:00;;;;;;;1.03;0.70;;;4.70;99.90;4.50;97192.00;;;;4971996;28;90984;-65
2023/01/17 02:24:57;;;;;;;1.03;0.60;;;4.60;99.90;4.60;97190.00;;;;4970323;28;87928;-65
2023/01/17 02:27:44;;;;;;;2.17;1.10;;;4.60;99.90;4.60;97187.00;;;;4967130;28;87799;-67
2023/01/17 02:30:26;;;;;;;1.17;0.87;;;4.80;99.90;4.70;97189.00;;;;4969762;28;87844;-65
2023/01/17 02:33:19;;;;;;;1.27;0.77;;;4.90;99.90;4.80;97184.00;;;;4969994;28;87900;-66
2023/01/17 02:35:57;;;;;;;0.80;0.80;;;4.90;99.90;4.80;97185.00;;;;4971167;28;87123;-65
2023/01/17 02:38:44;;;;;;;1.23;1.00;;;5.20;99.90;4.90;97188.00;;;;4967422;28;107179;-66
2023/01/17 02:41:19;;;;;;;1.03;0.50;;;5.10;99.90;5.00;97194.00;;;;4967577;28;103292;-67
2023/01/17 02:43:51;;;;;;;0.80;0.80;;;5.10;99.90;5.00;97191.00;;;;4970194;28;98413;-65
2023/01/17 02:46:17;;;;;;;0.63;0.57;;;5.10;99.90;5.00;97195.00;;;;4968760;28;88918;-66
2023/01/17 02:48:44;;;;;;;4.77;0.77;;;5.10;99.90;5.10;97197.00;;;;4969474;28;117842;-66
2023/01/17 02:51:46;;;;;;;2.40;0.90;;;5.20;99.90;5.10;97199.00;;;;4971880;28;110197;-66
2023/01/17 02:54:38;;;;;;;1.07;0.70;;;5.30;99.90;5.20;97216.00;;;;4969735;28;87951;-66
2023/01/17 02:57:25;;;;;;;0.50;0.50;;;5.30;99.90;5.20;97198.00;;;;4968639;28;88193;-67
2023/01/17 03:00:19;;;;;;;0.40;0.40;;;6.10;99.90;5.30;97205.00;;;;4971622;28;102508;-65
2023/01/17 03:03:26;;;;;;;0.50;0.40;;;5.40;99.90;5.30;97206.00;;;;4968041;28;87094;-66
2023/01/17 03:06:03;;;;;;;1.30;0.33;;;5.50;99.90;5.30;97210.00;;;;4928866;28;87895;-65
2023/01/17 03:08:30;;;;;;;0.30;0.20;;;5.90;99.90;5.40;97198.00;;;;4968068;28;87851;-65
2023/01/17 03:10:56;;;;;;;0.30;0.30;;;5.40;99.90;5.40;97203.00;;;;4969509;28;116483;-65
2023/01/17 03:13:22;;;;;;;0.10;0.10;;;5.50;99.90;5.50;97204.00;;;;4969266;28;87992;-67
2023/01/17 03:15:48;;;;;;;0.23;0.23;;;5.60;99.90;5.60;97200.00;;;;4968253;28;87901;-67
2023/01/17 03:18:15;;;;;;;0.10;0.10;;;6.50;99.90;5.70;97232.00;;;;4972411;28;117063;-66
2023/01/17 03:20:41;;;;;;;0.10;0.10;;;5.80;99.90;5.70;97194.00;;;;4971735;28;96313;-65
2023/01/17 03:23:07;;;;;;;0.33;0.10;;;5.80;99.90;5.80;97221.00;;;;4967006;28;109188;-66
2023/01/17 03:25:33;;;;;;;0.10;0.10;;;5.80;99.90;5.80;97224.00;;;;4970353;28;87734;-66
2023/01/17 03:27:58;;;;;;;0.23;0.17;;;6.60;99.90;5.90;97226.00;;;;4970789;28;114521;-65
2023/01/17 03:30:24;;;;;;;0.20;0.10;;;6.80;99.90;5.90;97228.00;;;;4966146;28;115657;-65
2023/01/17 03:32:50;;;;;;;0.13;0.13;;;5.90;99.90;6.00;97234.00;;;;4970545;28;89112;-65
2023/01/17 03:35:16;;;;;;;0.27;0.20;;;6.60;99.90;6.00;97230.00;;;;4969361;28;107712;-66
2023/01/17 03:37:42;;;;;;;0.40;0.20;;;6.10;99.90;6.00;97236.00;;;;4974670;27;118760;-67
2023/01/17 03:40:08;;;;;;;0.00;0.00;;;6.10;99.90;6.10;97236.00;;;;4971703;28;117517;-66
2023/01/17 03:42:34;;;;;;;0.07;0.07;;;6.20;99.90;6.10;97243.00;;;;4968013;28;99465;-66
2023/01/17 03:44:59;;;;;;;0.00;0.00;;;6.90;99.90;6.10;97242.00;;;;4967054;28;108846;-67
2023/01/17 03:47:25;;;;;;;0.20;0.20;;;7.00;99.90;6.10;97241.00;;;;4969691;28;102172;-66
2023/01/17 03:49:51;;;;;;;0.10;0.10;;;6.20;99.90;6.10;97241.00;;;;4968580;28;116236;-66
2023/01/17 03:52:16;;;;;;;0.47;0.23;;;6.50;99.90;6.10;97235.00;;;;4972464;28;110392;-66
2023/01/17 03:54:42;;;;;;;0.10;0.10;;;6.20;99.90;6.10;97247.00;;;;4970581;28;108339;-66
2023/01/17 03:57:08;;;;;;;0.23;0.10;;;6.20;99.90;6.10;97254.00;;;;4970223;28;113749;-66
2023/01/17 03:59:34;;;;;;;0.20;0.20;;;6.60;99.90;6.00;97254.00;;;;4970044;28;94770;-65
2023/01/17 04:02:00;;;;;;;0.30;0.27;;;6.40;99.90;6.00;97243.00;;;;4971823;28;98439;-65
2023/01/17 04:04:26;;;;;;;0.10;0.10;;;6.80;99.90;6.00;97284.00;;;;4971357;28;88454;-65
2023/01/17 04:06:51;;;;;;;0.40;0.20;;;6.20;99.90;5.80;97278.00;;;;4966664;28;118479;-65
2023/01/17 04:09:17;;;;;;;0.43;0.10;;;6.00;99.90;5.60;97267.00;;;;4975209;28;88828;-67
2023/01/17 04:11:43;;;;;;;0.17;0.10;;;5.90;99.90;5.50;97290.00;;;;4973435;28;110478;-66
2023/01/17 04:14:08;;;;;;;0.13;0.13;;;5.70;99.90;5.30;97281.00;;;;4975878;28;87799;-66
2023/01/17 04:16:36;;;;;;;0.10;0.10;;;5.60;99.90;5.20;97280.00;;;;4975869;28;117415;-66
2023/01/17 04:19:02;;;;;;;0.10;0.10;;;6.00;99.90;5.10;97293.00;;;;4972435;28;117679;-66
2023/01/17 04:21:28;;;;;;;5.00;0.30;;;5.30;99.90;5.00;97284.00;;;;4973231;28;110320;-66
2023/01/17 04:23:53;;;;;;;0.27;0.20;;;5.20;99.90;5.00;97294.00;;;;4973204;28;96391;-66
2023/01/17 04:26:19;;;;;;;1.80;0.13;;;5.90;99.90;4.90;97297.00;;;;4970253;28;116515;-66
2023/01/17 04:28:45;;;;;;;0.10;0.10;;;5.90;99.90;4.90;97294.00;;;;4969331;28;107119;-65
2023/01/17 04:31:15;;;;;;;0.40;0.40;;;5.00;99.90;4.90;97299.00;;;;4974676;28;110047;-66
2023/01/17 04:33:41;;;;;;;0.00;0.00;;;4.90;99.90;4.90;97298.00;;;;4978616;28;89613;-67
2023/01/17 04:36:07;;;;;;;0.23;0.23;;;5.80;99.90;4.90;97320.00;;;;4971672;28;88292;-66
2023/01/17 04:38:34;;;;;;;1.27;0.50;;;5.00;99.90;4.90;97313.00;;;;4976007;28;87988;-66
2023/01/17 04:40:59;;;;;;;0.10;0.10;;;5.00;99.90;4.90;97304.00;;;;4974332;28;86974;-66
2023/01/17 04:43:25;;;;;;;0.20;0.20;;;5.00;99.90;4.90;97303.00;;;;4969399;28;108099;-66
2023/01/17 04:45:57;;;;;;;0.30;0.30;;;5.00;99.90;5.00;97305.00;;;;4971722;28;117277;-65
2023/01/17 04:48:23;;;;;;;0.10;0.10;;;5.00;99.90;5.10;97312.00;;;;4970610;28;116219;-64
2023/01/17 04:50:50;;;;;;;0.10;0.10;;;5.20;99.90;5.10;97314.00;;;;4976288;28;87864;-65
2023/01/17 04:53:15;;;;;;;0.17;0.17;;;5.40;99.90;5.20;97320.00;;;;4968705;28;108920;-65
2023/01/17 04:55:45;;;;;;;0.20;0.13;;;5.30;99.90;5.20;97335.00;;;;4973333;28;104824;-64
2023/01/17 04:58:10;;;;;;;0.27;0.20;;;5.30;99.90;5.30;97335.00;;;;4971290;28;88270;-64
2023/01/17 05:00:36;;;;;;;0.20;0.20;;;5.40;99.90;5.40;97352.00;;;;4971839;28;102485;-65
2023/01/17 05:03:02;;;;;;;0.13;0.13;;;5.50;99.90;5.50;97353.00;;;;4973047;28;109314;-65
2023/01/17 05:05:27;;;;;;;0.20;0.20;;;5.50;99.90;5.50;97357.00;;;;4969821;28;112267;-64
2023/01/17 05:07:57;;;;;;;0.10;0.10;;;5.50;99.90;5.50;97353.00;;;;4975470;28;88120;-67
2023/01/17 05:10:24;;;;;;;0.30;0.20;;;6.00;99.90;5.50;97350.00;;;;4972374;28;87822;-66
2023/01/17 05:12:58;;;;;;;0.30;0.20;;;5.60;99.90;5.60;97340.00;;;;4969791;28;95601;-66
2023/01/17 05:15:25;;;;;;;0.30;0.30;;;6.30;99.90;5.60;97361.00;;;;4972954;28;88251;-65
2023/01/17 05:17:52;;;;;;;0.97;0.33;;;5.70;99.90;5.60;97358.00;;;;4970785;28;90892;-67
2023/01/17 05:20:20;;;;;;;0.23;0.23;;;5.80;99.90;5.60;97362.00;;;;4969365;28;91400;-64
2023/01/17 05:22:55;;;;;;;0.33;0.30;;;5.70;99.90;5.60;97368.00;;;;4976265;27;87882;-65
2023/01/17 05:25:27;;;;;;;0.43;0.27;;;5.60;99.90;5.60;97377.00;;;;4973617;28;89384;-64
2023/01/17 05:27:53;;;;;;;0.40;0.30;;;5.70;99.90;5.60;97381.00;;;;4976446;28;92787;-65
2023/01/17 05:30:20;;;;;;;0.30;0.20;;;5.70;99.90;5.60;97390.00;;;;4972604;28;89604;-65
2023/01/17 05:32:51;;;;;;;0.30;0.30;;;5.70;99.90;5.60;97413.00;;;;4970168;28;87863;-66
2023/01/17 05:35:18;;;;;;;0.40;0.40;;;5.70;99.90;5.60;97384.00;;;;4972669;28;87827;-65
2023/01/17 05:37:47;;;;;;;0.20;0.20;;;6.30;99.90;5.60;97407.00;;;;4970574;28;89515;-65
2023/01/17 05:40:18;;;;;;;0.30;0.30;;;5.70;99.90;5.60;97402.00;;;;4971925;28;88147;-66
2023/01/17 05:42:49;;;;;;;0.20;0.20;;;5.70;99.90;5.60;97406.00;;;;4968087;28;100148;-66
2023/01/17 05:45:17;;;;;;;0.10;0.10;;;6.00;99.90;5.60;97407.00;;;;4970823;28;87920;-64
2023/01/17 05:47:44;;;;;;;3.90;0.53;;;6.50;99.90;5.60;97408.00;;;;4968760;28;88497;-65
2023/01/17 05:50:12;;;;;;;0.70;0.50;;;5.70;99.90;5.60;97412.00;;;;4973374;28;88726;-64
2023/01/17 05:52:38;;;;;;;0.30;0.20;;;5.70;99.90;5.60;97414.00;;;;4969405;28;88025;-64
2023/01/17 05:55:06;;;;;;;1.03;0.47;;;5.80;99.90;5.60;97418.00;;;;4973647;28;87143;-64
2023/01/17 05:57:32;;;;;;;0.30;0.30;;;5.80;99.90;5.60;97420.00;;;;4967158;28;88113;-64
2023/01/17 05:59:58;;;;;;;0.10;0.10;;;5.70;99.90;5.60;97423.00;;;;4972053;28;96924;-65
2023/01/17 06:02:23;;;;;;;0.27;0.27;;;5.60;99.90;5.60;97436.00;;;;4970789;28;110358;-65
2023/01/17 06:04:49;;;;;;;2.20;0.70;;;5.80;99.90;5.50;97423.00;;;;4973735;28;118066;-64
2023/01/17 06:07:15;;;;;;;0.60;0.60;;;6.30;99.90;5.50;97433.00;;;;4983665;28;115597;-64
2023/01/17 06:09:40;;;;;;;0.67;0.50;;;5.70;99.90;5.50;97423.00;;;;4989991;28;109112;-66
2023/01/17 06:12:06;;;;;;;0.73;0.60;;;5.60;99.90;5.50;97440.00;;;;4977514;28;106417;-65
2023/01/17 06:14:32;;;;;;;0.60;0.60;;;5.70;99.90;5.50;97441.00;;;;4968125;28;117781;-64
2023/01/17 06:16:57;;;;;;;1.97;0.97;;;5.50;99.90;5.50;97443.00;;;;4972627;28;87851;-65
2023/01/17 06:19:23;;;;;;;0.80;0.70;;;5.60;99.90;5.50;97437.00;;;;4969565;28;109185;-64
2023/01/17 06:21:49;;;;;;;3.60;0.60;;;6.00;99.90;5.40;97445.00;;;;4972294;28;108447;-65
2023/01/17 06:24:15;;;;;;;1.47;0.67;;;5.50;99.90;5.40;97441.00;;;;4973644;28;117569;-64
2023/01/17 06:26:43;;;;;;;0.30;0.30;;;5.60;99.90;5.40;97430.00;;;;4970180;28;116995;-65
2023/01/17 06:29:10;;;;;;;0.30;0.30;;;6.50;99.90;5.40;97446.00;;;;4969605;28;87856;-65
2023/01/17 06:31:36;;;;;;;3.10;0.50;;;6.20;99.90;5.40;97443.00;;;;4963317;28;99244;-65
2023/01/17 06:34:03;;;;;;;0.80;0.60;;;5.50;99.90;5.40;97463.00;;;;4970405;28;87936;-63
2023/01/17 06:36:31;;;;;;;0.20;0.20;;;5.50;99.90;5.40;97456.00;;;;4969546;28;88582;-65
2023/01/17 06:38:56;;;;;;;2.77;0.50;;;5.50;99.90;5.40;97448.00;;;;4969239;28;94838;-65
2023/01/17 06:41:22;;;;;;;0.97;0.70;;;5.60;99.90;5.40;97453.00;;;;4967442;28;108269;-65
2023/01/17 06:43:48;;;;;;;1.33;0.73;;;5.50;99.90;5.40;97455.00;;;;4973067;28;87390;-63
2023/01/17 06:46:14;;;;;;;0.73;0.50;;;5.50;99.90;5.40;97452.00;;;;4964904;28;115929;-64
2023/01/17 06:48:42;;;;;;;1.80;0.83;;;5.50;99.90;5.40;97459.00;;;;4973638;28;112072;-65
2023/01/17 06:51:08;;;;;;;1.23;0.50;;;5.50;99.90;5.40;97467.00;;;;4969480;28;89006;-64
2023/01/17 06:53:35;;;;;;;1.10;0.67;;;5.60;99.90;5.30;97465.00;;;;4971093;28;107717;-65
2023/01/17 06:56:01;;;;;;;0.27;0.27;;;5.50;99.90;5.30;97490.00;;;;4971206;28;88950;-65
2023/01/17 06:58:28;;;;;;;3.13;0.30;;;5.90;99.90;5.30;97480.00;;;;4967608;28;87638;-65
2023/01/17 07:00:53;;;;;;;0.50;0.50;;;5.40;99.90;5.30;97475.00;;;;4974141;28;106974;-64
2023/01/17 07:03:22;;;;;;;1.20;0.60;;;5.40;99.90;5.30;97495.00;;;;4972968;28;118656;-64
2023/01/17 07:05:48;;;;;;;3.70;1.20;;;5.50;99.90;5.30;97490.00;;;;4971250;28;89190;-63
2023/01/17 07:08:15;;;;;;;1.50;0.60;;;5.40;99.90;5.30;97494.00;;;;4973757;28;109657;-64
2023/01/17 07:10:43;;;;;;;0.87;0.37;;;5.40;99.90;5.30;97495.00;;;;4976080;28;87881;-65
2023/01/17 07:13:10;;;;;;;0.93;0.30;;;5.40;99.90;5.30;97511.00;;;;4973803;28;88188;-65
2023/01/17 07:15:36;;;;;;;1.60;0.57;;;5.40;99.90;5.30;97510.00;;;;4967147;27;88711;-64
2023/01/17 07:18:02;;;;;;;0.80;0.70;;;5.40;99.90;5.30;97505.00;;;;4973573;28;87904;-63
2023/01/17 07:20:29;;;;;;;8.63;0.83;;;5.50;99.90;5.20;97499.00;;;;4969461;28;87743;-65
2023/01/17 07:22:54;;;;;;;0.50;0.50;;;5.30;99.90;5.20;97516.00;;;;4968050;28;88061;-64
2023/01/17 07:25:20;;;;;;;0.77;0.63;;;5.30;99.90;5.20;97519.00;;;;4969071;28;117651;-65
2023/01/17 07:27:46;;;;;;;1.73;0.90;;;5.90;99.90;5.20;97515.00;;;;4968950;28;111576;-65
2023/01/17 07:30:12;;;;;;;0.20;0.20;;;5.40;99.90;5.20;97518.00;;;;4970385;28;87782;-66
2023/01/17 07:32:38;;;;;;;1.57;0.60;;;5.40;99.90;5.20;97514.00;;;;4969318;28;87230;-63
2023/01/17 07:35:05;;;;;;;1.57;0.50;;;5.40;99.90;5.20;97531.00;;;;4967200;28;101815;-65
2023/01/17 07:37:31;;;;;;;1.53;0.77;;;5.40;99.90;5.20;97525.00;;;;4965507;28;102474;-64
2023/01/17 07:39:57;;;;;;;1.50;0.60;;;6.00;99.90;5.30;97526.00;;;;4973250;28;107915;-63
2023/01/17 07:42:23;;;;;;;0.87;0.60;;;5.30;99.90;5.40;97528.00;;;;4967953;28;117806;-65
2023/01/17 07:44:48;;;;;;;0.50;0.50;;;5.50;99.90;5.50;97526.00;;;;4966106;28;116871;-65
2023/01/17 07:47:14;;;;;;;0.50;0.50;;;5.50;99.90;5.60;97533.00;;;;4965539;28;110602;-64
2023/01/17 07:49:40;;;;;;;0.47;0.47;;;5.70;99.90;5.60;97522.00;;;;4971022;28;108062;-64
2023/01/17 07:52:07;;;;;;;0.63;0.40;;;5.60;99.90;5.60;97526.00;;;;4967287;28;105815;-64
2023/01/17 07:54:32;;;;;;;0.50;0.50;;;6.50;99.90;5.60;97523.00;;;;4971359;28;88344;-63
2023/01/17 07:56:58;;;;;;;1.10;0.40;;;5.60;99.90;5.70;97527.00;;;;4970819;28;103219;-65
2023/01/17 07:59:24;;;;;;;0.20;0.20;;;5.70;99.90;5.70;97533.00;;;;4967441;28;87969;-65
2023/01/17 08:01:49;;;;;;;1.10;1.00;;;5.80;99.90;5.70;97532.00;;;;4968219;28;117668;-64
2023/01/17 08:04:15;;;;;;;3.17;0.80;;;5.70;99.90;5.60;97536.00;;;;4967836;28;118630;-64
2023/01/17 08:06:46;;;;;;;0.87;0.87;;;5.70;99.90;5.70;97543.00;;;;4967621;28;88119;-64
2023/01/17 08:09:12;;;;;;;2.20;0.93;;;5.70;99.90;5.80;97547.00;;;;4967307;28;87875;-64
2023/01/17 08:11:38;;;;;;;1.50;0.47;;;6.60;99.90;6.10;97551.00;;;;4975399;28;91413;-65
2023/01/17 08:14:03;;;;;;;1.00;0.80;;;6.00;99.90;6.30;97542.00;;;;4965073;28;117666;-64
2023/01/17 08:16:29;;;;;;;0.97;0.53;;;7.00;99.40;6.50;97564.00;;;;4971523;28;92294;-64
2023/01/17 08:18:56;;;;;;;0.60;0.60;;;6.50;99.00;6.60;97562.00;;;;4972044;28;108340;-65
2023/01/17 08:21:22;;;;;;;0.43;0.43;;;6.70;98.40;6.70;97570.00;;;;4964932;28;90322;-65
2023/01/17 08:23:49;;;;;;;2.47;1.00;;;7.10;97.50;6.80;97556.00;;;;4969063;28;110661;-64
2023/01/17 08:26:21;;;;;;;0.73;0.70;;;7.70;97.20;6.90;97577.00;;;;4967257;28;87870;-65
2023/01/17 08:29:04;;;;;;;0.97;0.43;;;6.90;96.50;7.00;97582.00;;;;4966404;28;88865;-64
2023/01/17 08:31:33;;;;;;;0.53;0.53;;;7.50;96.30;6.90;97582.00;;;;4971006;28;116599;-65
2023/01/17 08:33:59;;;;;;;0.70;0.40;;;7.80;96.40;7.00;97592.00;;;;4973670;28;87725;-64
2023/01/17 08:36:27;;;;;;;2.30;0.60;;;7.30;96.10;7.10;97584.00;;;;4970368;28;109996;-64
2023/01/17 08:38:54;;;;;;;0.43;0.43;;;7.10;95.60;7.00;97584.00;;;;4973393;27;87686;-65
2023/01/17 08:41:21;;;;;;;0.50;0.50;;;7.70;95.30;7.10;97593.00;;;;4967908;28;88575;-64
2023/01/17 08:43:49;;;;;;;2.17;0.50;;;7.30;95.60;7.00;97595.00;;;;4965947;28;90418;-64
2023/01/17 08:46:15;;;;;;;1.27;0.90;;;7.10;95.20;6.90;97592.00;;;;4971884;28;87279;-64
2023/01/17 08:48:42;;;;;;;0.40;0.30;;;7.50;95.00;6.70;97596.00;;;;4966741;28;95607;-65
2023/01/17 08:51:08;;;;;;;0.73;0.30;;;7.00;95.20;6.60;97592.00;;;;4967849;28;97835;-65
2023/01/17 08:53:33;;;;;;;0.40;0.40;;;7.20;95.90;6.50;97595.00;;;;4968546;28;110728;-66
2023/01/17 08:56:01;;;;;;;0.60;0.60;;;6.70;96.00;6.30;97605.00;;;;4970205;28;110978;-64
2023/01/17 08:58:29;;;;;;;3.40;0.50;;;6.50;96.10;6.20;97600.00;;;;4970446;28;87816;-65
2023/01/17 09:00:59;;;;;;;1.33;0.63;;;6.40;96.40;6.10;97600.00;;;;4973465;28;88951;-65
2023/01/17 09:03:25;;;;;;;0.43;0.43;;;6.30;96.20;6.10;97617.00;;;;4971818;28;90110;-65
2023/01/17 09:06:07;;;;;;;0.40;0.30;;;6.30;96.70;6.10;97615.00;;;;4973085;27;109745;-65
2023/01/17 09:08:33;;;;;;;1.03;0.57;;;6.20;96.80;6.10;97628.00;;;;4973667;28;87854;-64
2023/01/17 09:11:04;;;;;;;2.63;0.80;;;6.10;97.00;6.00;97630.00;;;;4972876;28;87587;-65
2023/01/17 09:13:29;;;;;;;1.33;0.60;;;6.20;97.30;6.00;97638.00;;;;4970579;28;106354;-65
2023/01/17 09:15:57;;;;;;;0.40;0.40;;;6.00;97.50;6.00;97651.00;;;;4970770;28;110337;-64
2023/01/17 09:18:24;;;;;;;0.70;0.50;;;6.80;97.20;5.90;97646.00;;;;4974513;28;88893;-64
2023/01/17 09:20:53;;;;;;;1.20;0.87;;;6.00;97.00;5.80;97647.00;;;;4972326;28;110144;-64
2023/01/17 09:23:21;;;;;;;0.93;0.67;;;6.50;97.20;5.80;97647.00;;;;4969933;28;87924;-64
2023/01/17 09:25:58;;;;;;;1.13;0.70;;;5.90;97.00;5.80;97650.00;;;;4968797;28;87732;-63
2023/01/17 09:28:25;;;;;;;2.60;1.07;;;6.70;97.80;5.80;97664.00;;;;4970665;28;87834;-64
2023/01/17 09:30:51;;;;;;;10.17;1.00;;;5.90;97.50;5.80;97660.00;;;;4971220;28;111899;-65
2023/01/17 09:33:17;;;;;;;1.27;0.97;;;6.30;97.10;5.80;97672.00;;;;4974038;28;87836;-63
2023/01/17 09:35:44;;;;;;;0.67;0.67;;;6.60;97.40;5.80;97670.00;;;;4974474;28;87177;-64
2023/01/17 09:38:11;;;;;;;1.10;0.90;;;5.90;97.30;5.80;97673.00;;;;4972824;28;87716;-63
2023/01/17 09:40:44;;;;;;;1.57;0.67;;;5.90;97.20;5.80;97673.00;;;;4970727;28;87878;-63
2023/01/17 09:43:38;;;;;;;0.53;0.53;;;5.90;97.20;5.70;97681.00;;;;4968696;28;89266;-64
2023/01/17 09:46:13;;;;;;;0.90;0.50;;;6.60;97.70;5.70;97670.00;;;;4968333;28;87880;-63
2023/01/17 09:48:41;;;;;;;5.40;0.80;;;5.90;97.20;5.70;97679.00;;;;4968748;28;88154;-64
2023/01/17 09:51:14;;;;;;;1.13;0.70;;;5.80;97.10;5.70;97686.00;;;;4973464;28;116111;-63
2023/01/17 09:53:42;;;;;;;0.60;0.53;;;5.80;97.20;5.70;97682.00;;;;4973345;28;110408;-65
2023/01/17 09:56:23;;;;;;;3.90;0.60;;;6.50;97.20;5.70;97687.00;;;;4971623;28;87856;-65
2023/01/17 09:59:35;;;;;;;0.60;0.60;;;5.90;96.90;5.70;97686.00;;;;4968907;28;87832;-65
2023/01/17 10:02:46;;;;;;;0.47;0.20;;;5.90;96.90;5.80;97692.00;;;;4973919;28;87157;-65
2023/01/17 10:05:51;;;;;;;0.60;0.50;;;6.00;96.90;6.20;97681.00;;;;4984275;27;110914;-63
2023/01/17 10:08:48;;;;;;;0.60;0.47;;;6.20;97.10;6.40;97687.00;;;;4971828;28;87768;-63
2023/01/17 10:11:58;;;;;;;3.30;0.40;;;6.40;96.30;6.50;97668.00;;;;4972875;28;100136;-67
2023/01/17 10:14:53;;;;;;;0.50;0.50;;;6.60;95.40;6.50;97684.00;;;;4971197;28;88812;-66
2023/01/17 10:17:31;;;;;;;0.33;0.20;;;6.70;94.70;6.50;97693.00;;;;4969960;28;87816;-67
2023/01/17 10:20:17;;;;;;;0.50;0.50;;;6.90;94.50;6.40;97687.00;;;;4980287;28;87830;-66
2023/01/17 10:23:36;;;;;;;0.73;0.37;;;6.60;94.70;6.40;97688.00;;;;4988436;28;93353;-65
2023/01/17 10:26:09;;;;;;;0.50;0.50;;;6.60;95.00;6.40;97688.00;;;;4980710;28;109026;-65
2023/01/17 10:28:51;;;;;;;1.10;0.63;;;6.60;94.20;6.30;97695.00;;;;4973650;28;88968;-66
2023/01/17 10:31:49;;;;;;;0.17;0.17;;;7.20;94.20;6.30;97698.00;;;;4969813;28;87086;-66
2023/01/17 10:34:26;;;;;;;0.30;0.30;;;6.40;93.50;6.20;97700.00;;;;4970005;28;87991;-65
2023/01/17 10:37:04;;;;;;;0.57;0.53;;;6.90;93.00;6.20;97696.00;;;;4970537;28;88615;-66
2023/01/17 10:39:30;;;;;;;0.60;0.50;;;6.30;93.00;6.10;97709.00;;;;4971546;28;110725;-65
2023/01/17 10:42:07;;;;;;;0.40;0.30;;;6.30;93.30;6.10;97700.00;;;;4971219;28;110111;-65
2023/01/17 10:44:50;;;;;;;0.50;0.40;;;6.30;93.50;6.10;97701.00;;;;4969576;28;87565;-64
2023/01/17 10:47:21;;;;;;;0.83;0.30;;;6.20;93.80;6.10;97706.00;;;;4975652;28;88807;-64
2023/01/17 10:49:58;;;;;;;0.97;0.40;;;6.30;93.70;6.10;97697.00;;;;4973074;28;87959;-65
2023/01/17 10:52:55;;;;;;;0.80;0.27;;;6.30;93.70;6.10;97704.00;;;;4967775;28;87739;-66
2023/01/17 10:56:07;;;;;;;1.57;0.40;;;6.20;93.20;6.00;97716.00;;;;4970195;28;87847;-65
2023/01/17 10:58:32;;;;;;;0.20;0.20;;;6.20;93.10;6.00;97713.00;;;;4963343;28;116992;-64
2023/01/17 11:01:14;;;;;;;0.57;0.43;;;6.80;93.20;6.00;97706.00;;;;4970765;28;116740;-65
2023/01/17 11:03:42;;;;;;;0.40;0.40;;;6.10;92.80;6.00;97707.00;;;;4970890;28;102340;-64
2023/01/17 11:06:23;;;;;;;0.20;0.20;;;6.10;92.80;5.90;97712.00;;;;4972046;28;88882;-64
2023/01/17 11:08:58;;;;;;;0.57;0.27;;;6.10;92.80;5.90;97722.00;;;;4968717;28;87704;-65
2023/01/17 11:11:30;;;;;;;0.30;0.30;;;6.10;93.00;5.90;97724.00;;;;4970421;28;87679;-65
2023/01/17 11:14:05;;;;;;;0.37;0.37;;;6.00;92.80;5.90;97721.00;;;;4973311;28;89106;-65
2023/01/17 11:16:31;;;;;;;3.73;0.50;;;6.40;93.00;5.90;97716.00;;;;4974595;28;87970;-66
2023/01/17 11:19:16;;;;;;;0.63;0.53;;;6.10;92.80;5.90;97725.00;;;;4970173;28;103450;-64
2023/01/17 11:21:53;;;;;;;0.93;0.70;;;6.10;93.00;5.90;97729.00;;;;4986673;27;89093;-65
2023/01/17 11:24:29;;;;;;;3.10;0.40;;;6.10;92.80;5.90;97722.00;;;;4967938;28;87090;-65
2023/01/17 11:26:56;;;;;;;0.23;0.20;;;6.60;92.50;5.90;97734.00;;;;4968866;28;87893;-66
2023/01/17 11:29:36;;;;;;;0.60;0.30;;;6.00;92.20;5.80;97720.00;;;;4967706;28;115529;-64
2023/01/17 11:32:28;;;;;;;0.87;0.33;;;6.00;92.30;5.80;97730.00;;;;4968582;28;89800;-65
2023/01/17 11:35:20;;;;;;;2.57;0.57;;;6.00;92.40;5.80;97723.00;;;;4972503;28;88195;-64
2023/01/17 11:37:51;;;;;;;0.43;0.33;;;6.00;92.20;5.80;97730.00;;;;4971910;28;87914;-64
2023/01/17 11:40:28;;;;;;;0.50;0.40;;;6.00;92.60;5.80;97723.00;;;;4968023;28;88775;-64
2023/01/17 11:43:13;;;;;;;1.30;0.30;;;5.90;93.00;5.80;97724.00;;;;4967647;28;87848;-65
2023/01/17 11:45:40;;;;;;;1.10;0.73;;;5.90;92.90;5.80;97724.00;;;;4969457;28;87803;-65
2023/01/17 11:48:09;;;;;;;1.00;0.60;;;5.90;92.90;5.80;97734.00;;;;4972856;28;87757;-65
2023/01/17 11:50:45;;;;;;;0.50;0.50;;;5.90;93.10;5.80;97726.00;;;;4971513;28;88754;-66
2023/01/17 11:53:27;;;;;;;0.40;0.40;;;6.00;93.20;5.90;97746.00;;;;4969762;28;87818;-64
2023/01/17 11:56:15;;;;;;;0.50;0.50;;;6.00;93.20;5.90;97744.00;;;;4970254;28;92500;-66
2023/01/17 11:58:41;;;;;;;2.43;0.73;;;6.00;93.30;5.90;97742.00;;;;4969440;28;89031;-65
2023/01/17 12:02:00;;;;;;;0.20;0.20;;;6.00;93.70;5.80;97736.00;;;;4969219;28;117703;-65
2023/01/17 12:04:41;;;;;;;2.27;0.40;;;5.90;93.50;5.80;97737.00;;;;4931653;28;87940;-64
2023/01/17 12:07:40;;;;;;;1.60;0.63;;;6.00;92.90;5.80;97743.00;;;;4967445;28;87662;-64
2023/01/17 12:10:29;;;;;;;0.70;0.70;;;6.00;93.20;5.80;97735.00;;;;4968936;28;98943;-65
2023/01/17 12:14:01;;;;;;;0.70;0.70;;;6.00;93.30;5.90;97736.00;;;;4968511;28;92081;-65
2023/01/17 12:17:07;;;;;;;0.60;0.60;;;6.00;93.80;5.90;97734.00;;;;4969905;28;88087;-66
2023/01/17 12:20:03;;;;;;;0.40;0.40;;;6.00;93.80;5.90;97734.00;;;;4971224;28;87219;-65
2023/01/17 12:23:00;;;;;;;1.53;0.53;;;6.00;93.40;5.90;97732.00;;;;4972254;28;87747;-65
2023/01/17 12:25:54;;;;;;;1.03;0.47;;;6.10;93.30;5.90;97739.00;;;;4967562;28;89132;-64
2023/01/17 12:28:52;;;;;;;1.43;0.27;;;6.00;93.10;5.90;97735.00;;;;4966523;28;88775;-65
2023/01/17 12:31:45;;;;;;;0.13;0.13;;;6.10;92.30;5.90;97744.00;;;;4969842;28;87880;-65
2023/01/17 12:34:27;;;;;;;1.43;0.63;;;6.00;92.20;5.90;97742.00;;;;4970036;28;90179;-64
2023/01/17 12:37:35;;;;;;;0.73;0.60;;;6.00;92.30;6.00;97739.00;;;;4972721;28;88250;-65
2023/01/17 12:40:28;;;;;;;0.30;0.20;;;6.10;92.00;6.00;97747.00;;;;4960066;28;89476;-64
2023/01/17 12:43:06;;;;;;;0.97;0.50;;;6.10;90.90;6.20;97762.00;;;;4974536;28;88023;-65
2023/01/17 12:45:41;;;;;;;0.30;0.30;;;6.50;90.90;6.60;97758.00;;;;4972024;28;103971;-65
2023/01/17 12:48:15;;;;;;;0.10;0.10;;;6.50;91.00;7.10;97765.00;;;;4971314;28;87091;-64
2023/01/17 12:51:06;;;;;;;1.20;0.53;;;7.00;90.10;7.20;97754.00;;;;4968515;28;107914;-64
2023/01/17 12:53:43;;;;;;;0.43;0.30;;;7.20;88.00;7.40;97757.00;;;;4983310;27;100848;-65